Terminal Aerodrome Forecast
Issued by NWS Melbourne, FL

Current Version | Previous Version | Text Only | Print | Product List | Glossary On
Versions: 1 2 3 4 5 6 7 8 9 10 11 12 13 14
000
FTUS42 KMLB 010500
TAFMLB
TAF
KMLB 010524Z 0106/0206 28007KT P6SM SKC
     FM011100 28012G18KT P6SM SKC
     FM011400 29019G28KT P6SM SKC
     FM012200 30014KT P6SM SKC
     FM020200 32009KT P6SM SKC=

USA.gov is the U.S. government's official web portal to all federal, state and local government web resources and services.